Terminal Aerodrome Forecast
Issued by NWS

Home | Current Version | Previous Version | Text Only | Print | Product List | Glossary On
Versions: 1 2 3 4 5 6 7 8 9 10 11 12 13 14
000
FTUS45 KRIW 211733
TAFCPR
TAF
KCPR 211733Z 2118/2218 VRB06KT P6SM BKN009 BKN015
     FM212000 23012KT P6SM SCT010 SCT150
     FM220300 22012G20KT P6SM SCT009 BKN100
     FM220700 22015G25KT 4SM -RA BR SCT008 OVC060
     FM221200 23020G30KT P6SM FEW010 BKN060=

USA.gov is the U.S. government's official web portal to all federal, state and local government web resources and services.